sensor_id;sensor_type;location;lat;lon;timestamp;pressure;altitude;pressure_sealevel;temperature;humidity
43711;BME280;29309;42.682;23.372;2022-07-23T00:00:00;95482.25;;;23.03;48.58
43711;BME280;29309;42.682;23.372;2022-07-23T00:02:25;95484.41;;;23.07;48.40
43711;BME280;29309;42.682;23.372;2022-07-23T00:04:51;95480.81;;;23.02;48.80
43711;BME280;29309;42.682;23.372;2022-07-23T00:07:16;95493.53;;;22.99;49.42
43711;BME280;29309;42.682;23.372;2022-07-23T00:09:42;95494.94;;;22.96;49.45
43711;BME280;29309;42.682;23.372;2022-07-23T00:12:07;95499.19;;;22.97;49.39
43711;BME280;29309;42.682;23.372;2022-07-23T00:14:33;95499.88;;;22.98;49.47
43711;BME280;29309;42.682;23.372;2022-07-23T00:16:58;95499.16;;;22.91;50.19
43711;BME280;29309;42.682;23.372;2022-07-23T00:19:23;95501.91;;;22.83;49.88
43711;BME280;29309;42.682;23.372;2022-07-23T00:21:49;95508.94;;;22.76;50.38
43711;BME280;29309;42.682;23.372;2022-07-23T00:24:14;95496.06;;;22.65;49.81
43711;BME280;29309;42.682;23.372;2022-07-23T00:26:40;95497.97;;;22.38;48.11
43711;BME280;29309;42.682;23.372;2022-07-23T00:29:05;95505.47;;;22.12;48.99
43711;BME280;29309;42.682;23.372;2022-07-23T00:31:31;95515.72;;;21.81;49.12
43711;BME280;29309;42.682;23.372;2022-07-23T00:33:56;95509.09;;;21.58;49.66
43711;BME280;29309;42.682;23.372;2022-07-23T00:36:23;95509.59;;;21.42;50.19
43711;BME280;29309;42.682;23.372;2022-07-23T00:38:49;95508.91;;;21.44;50.45
43711;BME280;29309;42.682;23.372;2022-07-23T00:41:14;95504.53;;;21.35;50.91
43711;BME280;29309;42.682;23.372;2022-07-23T00:43:40;95505.84;;;21.28;51.93
43711;BME280;29309;42.682;23.372;2022-07-23T00:46:05;95497.31;;;21.22;51.92
43711;BME280;29309;42.682;23.372;2022-07-23T00:48:31;95493.47;;;21.01;52.88
43711;BME280;29309;42.682;23.372;2022-07-23T00:50:56;95494.19;;;21.03;52.91
43711;BME280;29309;42.682;23.372;2022-07-23T00:53:22;95501.28;;;21.06;52.96
43711;BME280;29309;42.682;23.372;2022-07-23T00:55:48;95502.00;;;21.05;53.06
43711;BME280;29309;42.682;23.372;2022-07-23T00:58:14;95495.50;;;20.96;53.26
43711;BME280;29309;42.682;23.372;2022-07-23T01:00:41;95509.59;;;20.94;52.83
43711;BME280;29309;42.682;23.372;2022-07-23T01:03:06;95492.75;;;21.00;52.85
43711;BME280;29309;42.682;23.372;2022-07-23T01:05:32;95506.88;;;21.00;53.33
43711;BME280;29309;42.682;23.372;2022-07-23T01:07:58;95498.41;;;21.00;53.19
43711;BME280;29309;42.682;23.372;2022-07-23T01:10:24;95498.53;;;21.08;53.04
43711;BME280;29309;42.682;23.372;2022-07-23T01:12:57;95494.28;;;21.09;53.06
43711;BME280;29309;42.682;23.372;2022-07-23T01:15:22;95494.25;;;21.07;53.23
43711;BME280;29309;42.682;23.372;2022-07-23T01:17:48;95492.88;;;21.08;53.04
43711;BME280;29309;42.682;23.372;2022-07-23T01:20:14;95482.91;;;21.03;53.28
43711;BME280;29309;42.682;23.372;2022-07-23T01:22:40;95485.94;;;21.16;52.99
43711;BME280;29309;42.682;23.372;2022-07-23T01:25:06;95481.53;;;21.06;52.92
43711;BME280;29309;42.682;23.372;2022-07-23T01:27:32;95489.50;;;21.18;52.81
43711;BME280;29309;42.682;23.372;2022-07-23T01:29:59;95491.72;;;21.26;52.96
43711;BME280;29309;42.682;23.372;2022-07-23T01:32:25;95488.22;;;21.29;53.16
43711;BME280;29309;42.682;23.372;2022-07-23T01:34:50;95480.38;;;21.24;52.97
43711;BME280;29309;42.682;23.372;2022-07-23T01:37:16;95483.97;;;21.26;53.04
43711;BME280;29309;42.682;23.372;2022-07-23T01:39:41;95482.53;;;21.27;53.06
43711;BME280;29309;42.682;23.372;2022-07-23T01:42:07;95481.16;;;21.28;52.90
43711;BME280;29309;42.682;23.372;2022-07-23T01:44:32;95487.59;;;21.35;52.63
43711;BME280;29309;42.682;23.372;2022-07-23T01:46:57;95487.69;;;21.43;53.00
43711;BME280;29309;42.682;23.372;2022-07-23T01:49:23;95482.81;;;21.47;52.78
43711;BME280;29309;42.682;23.372;2022-07-23T01:51:48;95488.53;;;21.53;52.74
43711;BME280;29309;42.682;23.372;2022-07-23T01:54:33;95487.25;;;21.65;52.54
43711;BME280;29309;42.682;23.372;2022-07-23T01:57:00;95486.53;;;21.62;52.61
43711;BME280;29309;42.682;23.372;2022-07-23T01:59:26;95483.63;;;21.56;52.94
43711;BME280;29309;42.682;23.372;2022-07-23T02:01:52;95493.53;;;21.57;53.04
43711;BME280;29309;42.682;23.372;2022-07-23T02:04:22;95492.84;;;21.58;52.97
43711;BME280;29309;42.682;23.372;2022-07-23T02:06:49;95489.31;;;21.58;52.67
43711;BME280;29309;42.682;23.372;2022-07-23T02:09:15;95488.63;;;21.59;52.78
43711;BME280;29309;42.682;23.372;2022-07-23T02:11:40;95490.03;;;21.58;53.02
43711;BME280;29309;42.682;23.372;2022-07-23T02:14:06;95492.09;;;21.56;53.10
43711;BME280;29309;42.682;23.372;2022-07-23T02:16:31;95492.09;;;21.56;53.12
43711;BME280;29309;42.682;23.372;2022-07-23T02:18:57;95495.56;;;21.48;53.21
43711;BME280;29309;42.682;23.372;2022-07-23T02:21:22;95490.59;;;21.47;53.25
43711;BME280;29309;42.682;23.372;2022-07-23T02:23:48;95500.44;;;21.46;53.34
43711;BME280;29309;42.682;23.372;2022-07-23T02:26:13;95497.56;;;21.40;53.54
43711;BME280;29309;42.682;23.372;2022-07-23T02:28:39;95493.28;;;21.39;53.60
43711;BME280;29309;42.682;23.372;2022-07-23T02:31:04;95496.88;;;21.41;53.59
43711;BME280;29309;42.682;23.372;2022-07-23T02:33:32;95491.91;;;21.42;53.49
43711;BME280;29309;42.682;23.372;2022-07-23T02:35:57;95498.88;;;21.35;53.61
43711;BME280;29309;42.682;23.372;2022-07-23T02:38:23;95492.31;;;21.18;54.32
43711;BME280;29309;42.682;23.372;2022-07-23T02:40:48;95494.13;;;20.99;54.65
43711;BME280;29309;42.682;23.372;2022-07-23T02:43:14;95503.97;;;20.94;55.12
43711;BME280;29309;42.682;23.372;2022-07-23T02:45:39;95501.72;;;20.87;55.57
43711;BME280;29309;42.682;23.372;2022-07-23T02:48:05;95502.91;;;20.74;55.89
43711;BME280;29309;42.682;23.372;2022-07-23T02:50:30;95504.25;;;20.69;56.27
43711;BME280;29309;42.682;23.372;2022-07-23T02:52:56;95507.69;;;20.63;56.28
43711;BME280;29309;42.682;23.372;2022-07-23T02:55:21;95509.06;;;20.62;56.42
43711;BME280;29309;42.682;23.372;2022-07-23T02:57:46;95509.06;;;20.62;56.44
43711;BME280;29309;42.682;23.372;2022-07-23T03:00:12;95500.59;;;20.60;56.73
43711;BME280;29309;42.682;23.372;2022-07-23T03:02:38;95525.13;;;20.51;56.69
43711;BME280;29309;42.682;23.372;2022-07-23T03:05:04;95522.25;;;20.47;57.15
43711;BME280;29309;42.682;23.372;2022-07-23T03:07:29;95520.78;;;20.44;57.21
43711;BME280;29309;42.682;23.372;2022-07-23T03:09:55;95525.19;;;20.55;56.95
43711;BME280;29309;42.682;23.372;2022-07-23T03:12:20;95532.34;;;20.60;56.63
43711;BME280;29309;42.682;23.372;2022-07-23T03:14:46;95531.47;;;20.50;57.20
43711;BME280;29309;42.682;23.372;2022-07-23T03:17:11;95521.69;;;20.57;56.70
43711;BME280;29309;42.682;23.372;2022-07-23T03:19:37;95532.91;;;20.53;56.90
43711;BME280;29309;42.682;23.372;2022-07-23T03:22:03;95530.50;;;20.35;57.58
43711;BME280;29309;42.682;23.372;2022-07-23T03:24:29;95533.13;;;20.27;58.08
43711;BME280;29309;42.682;23.372;2022-07-23T03:27:13;95538.22;;;20.33;57.66
43711;BME280;29309;42.682;23.372;2022-07-23T03:29:39;95541.19;;;20.43;57.57
43711;BME280;29309;42.682;23.372;2022-07-23T03:32:05;95541.28;;;20.47;57.31
43711;BME280;29309;42.682;23.372;2022-07-23T03:34:30;95539.19;;;20.49;57.43
43711;BME280;29309;42.682;23.372;2022-07-23T03:36:56;95539.91;;;20.50;57.52
43711;BME280;29309;42.682;23.372;2022-07-23T03:39:21;95537.34;;;20.66;56.95
43711;BME280;29309;42.682;23.372;2022-07-23T03:41:46;95537.59;;;20.80;56.49
43711;BME280;29309;42.682;23.372;2022-07-23T03:44:12;95540.66;;;20.96;56.02
43711;BME280;29309;42.682;23.372;2022-07-23T03:46:37;95547.16;;;21.05;55.63
43711;BME280;29309;42.682;23.372;2022-07-23T03:49:03;95537.44;;;21.14;55.26
43711;BME280;29309;42.682;23.372;2022-07-23T03:51:28;95546.69;;;21.21;55.57
43711;BME280;29309;42.682;23.372;2022-07-23T03:53:54;95536.97;;;21.30;55.15
43711;BME280;29309;42.682;23.372;2022-07-23T03:56:20;95541.41;;;21.45;54.95
43711;BME280;29309;42.682;23.372;2022-07-23T03:58:48;95543.00;;;21.58;54.58
43711;BME280;29309;42.682;23.372;2022-07-23T04:01:13;95544.59;;;21.73;54.00
43711;BME280;29309;42.682;23.372;2022-07-23T04:03:39;95547.44;;;21.73;54.50
43711;BME280;29309;42.682;23.372;2022-07-23T04:06:05;95546.13;;;21.82;54.32
43711;BME280;29309;42.682;23.372;2022-07-23T04:08:31;95542.03;;;21.93;54.06
43711;BME280;29309;42.682;23.372;2022-07-23T04:10:57;95553.47;;;22.03;54.21
43711;BME280;29309;42.682;23.372;2022-07-23T04:13:22;95545.13;;;22.16;53.42
43711;BME280;29309;42.682;23.372;2022-07-23T04:15:48;95549.44;;;22.23;52.84
43711;BME280;29309;42.682;23.372;2022-07-23T04:18:13;95546.81;;;22.43;52.53
43711;BME280;29309;42.682;23.372;2022-07-23T04:20:39;95541.34;;;22.65;52.61
43711;BME280;29309;42.682;23.372;2022-07-23T04:23:04;95547.88;;;22.78;52.18
43711;BME280;29309;42.682;23.372;2022-07-23T04:25:30;95550.84;;;22.96;51.13
43711;BME280;29309;42.682;23.372;2022-07-23T04:27:55;95548.81;;;23.07;50.19
43711;BME280;29309;42.682;23.372;2022-07-23T04:30:21;95557.41;;;23.19;49.76
43711;BME280;29309;42.682;23.372;2022-07-23T04:32:46;95550.34;;;23.24;49.21
43711;BME280;29309;42.682;23.372;2022-07-23T04:35:11;95554.66;;;23.37;49.01
43711;BME280;29309;42.682;23.372;2022-07-23T04:37:37;95561.91;;;23.56;48.26
43711;BME280;29309;42.682;23.372;2022-07-23T04:40:03;95553.44;;;23.66;48.04
43711;BME280;29309;42.682;23.372;2022-07-23T04:42:28;95551.41;;;23.81;47.62
43711;BME280;29309;42.682;23.372;2022-07-23T04:44:54;95557.75;;;23.75;47.53
43711;BME280;29309;42.682;23.372;2022-07-23T04:47:19;95554.22;;;23.75;47.27
43711;BME280;29309;42.682;23.372;2022-07-23T04:49:45;95548.53;;;23.73;47.48
43711;BME280;29309;42.682;23.372;2022-07-23T04:52:10;95562.75;;;23.83;47.11
43711;BME280;29309;42.682;23.372;2022-07-23T04:54:35;95570.47;;;23.64;47.97
43711;BME280;29309;42.682;23.372;2022-07-23T04:57:01;95570.34;;;23.48;47.89
43711;BME280;29309;42.682;23.372;2022-07-23T04:59:26;95570.94;;;23.32;49.03
43711;BME280;29309;42.682;23.372;2022-07-23T05:01:52;95568.03;;;23.18;48.68
43711;BME280;29309;42.682;23.372;2022-07-23T05:04:18;95565.13;;;23.10;49.40
43711;BME280;29309;42.682;23.372;2022-07-23T05:06:43;95564.38;;;23.03;49.01
43711;BME280;29309;42.682;23.372;2022-07-23T05:09:08;95564.38;;;23.05;49.02
43711;BME280;29309;42.682;23.372;2022-07-23T05:11:34;95564.97;;;22.92;49.48
43711;BME280;29309;42.682;23.372;2022-07-23T05:14:00;95559.97;;;22.86;49.42
43711;BME280;29309;42.682;23.372;2022-07-23T05:16:25;95567.72;;;22.82;49.41
43711;BME280;29309;42.682;23.372;2022-07-23T05:18:51;95565.50;;;22.72;49.53
43711;BME280;29309;42.682;23.372;2022-07-23T05:21:16;95568.13;;;22.54;50.54
43711;BME280;29309;42.682;23.372;2022-07-23T05:23:42;95571.63;;;22.50;50.35
43711;BME280;29309;42.682;23.372;2022-07-23T05:26:08;95575.16;;;22.47;50.44
43711;BME280;29309;42.682;23.372;2022-07-23T05:28:33;95567.38;;;22.47;51.06
43711;BME280;29309;42.682;23.372;2022-07-23T05:30:58;95570.97;;;22.54;51.06
43711;BME280;29309;42.682;23.372;2022-07-23T05:33:24;95567.44;;;22.53;50.94
43711;BME280;29309;42.682;23.372;2022-07-23T05:35:49;95576.09;;;22.70;50.68
43711;BME280;29309;42.682;23.372;2022-07-23T05:38:15;95568.13;;;22.54;50.55
43711;BME280;29309;42.682;23.372;2022-07-23T05:40:40;95570.31;;;22.60;50.62
43711;BME280;29309;42.682;23.372;2022-07-23T05:43:06;95572.47;;;22.63;50.21
43711;BME280;29309;42.682;23.372;2022-07-23T05:45:31;95578.81;;;22.62;49.76
43711;BME280;29309;42.682;23.372;2022-07-23T05:47:57;95573.13;;;22.57;50.21
43711;BME280;29309;42.682;23.372;2022-07-23T05:50:22;95569.66;;;22.63;49.59
43711;BME280;29309;42.682;23.372;2022-07-23T05:52:47;95572.59;;;22.71;49.34
43711;BME280;29309;42.682;23.372;2022-07-23T05:55:13;95574.13;;;22.84;49.57
43711;BME280;29309;42.682;23.372;2022-07-23T05:57:40;95577.75;;;22.93;49.01
43711;BME280;29309;42.682;23.372;2022-07-23T06:00:08;95577.22;;;23.17;48.57
43711;BME280;29309;42.682;23.372;2022-07-23T06:02:34;95573.03;;;23.30;47.82
43711;BME280;29309;42.682;23.372;2022-07-23T06:04:59;95575.38;;;23.58;46.21
43711;BME280;29309;42.682;23.372;2022-07-23T06:07:25;95576.19;;;23.78;45.85
43711;BME280;29309;42.682;23.372;2022-07-23T06:09:50;95568.53;;;24.07;45.65
43711;BME280;29309;42.682;23.372;2022-07-23T06:12:18;95565.13;;;24.41;44.69
43711;BME280;29309;42.682;23.372;2022-07-23T06:14:47;95572.28;;;24.82;44.03
43711;BME280;29309;42.682;23.372;2022-07-23T06:17:14;95568.06;;;25.14;43.84
43711;BME280;29309;42.682;23.372;2022-07-23T06:19:40;95558.06;;;25.47;43.39
43711;BME280;29309;42.682;23.372;2022-07-23T06:22:05;95567.25;;;25.80;42.82
43711;BME280;29309;42.682;23.372;2022-07-23T06:24:31;95565.75;;;26.05;42.52
43711;BME280;29309;42.682;23.372;2022-07-23T06:26:56;95555.59;;;26.51;41.70
43711;BME280;29309;42.682;23.372;2022-07-23T06:29:25;95561.81;;;26.83;41.36
43711;BME280;29309;42.682;23.372;2022-07-23T06:31:50;95549.38;;;27.21;39.67
43711;BME280;29309;42.682;23.372;2022-07-23T06:34:16;95551.44;;;27.33;39.05
43711;BME280;29309;42.682;23.372;2022-07-23T06:36:41;95558.38;;;27.54;38.39
43711;BME280;29309;42.682;23.372;2022-07-23T06:39:06;95550.84;;;27.92;38.32
43711;BME280;29309;42.682;23.372;2022-07-23T06:41:32;95553.91;;;28.34;37.52
43711;BME280;29309;42.682;23.372;2022-07-23T06:43:57;95547.31;;;28.46;36.50
43711;BME280;29309;42.682;23.372;2022-07-23T06:46:23;95552.56;;;28.80;36.42
43711;BME280;29309;42.682;23.372;2022-07-23T06:48:48;95551.84;;;29.25;35.29
43711;BME280;29309;42.682;23.372;2022-07-23T06:51:14;95552.88;;;29.50;34.95
43711;BME280;29309;42.682;23.372;2022-07-23T06:53:39;95543.94;;;29.68;33.94
43711;BME280;29309;42.682;23.372;2022-07-23T06:56:06;95548.38;;;30.00;33.32
43711;BME280;29309;42.682;23.372;2022-07-23T06:58:32;95542.19;;;30.22;32.34
43711;BME280;29309;42.682;23.372;2022-07-23T07:00:57;95540.81;;;30.19;32.29
43711;BME280;29309;42.682;23.372;2022-07-23T07:03:23;95537.38;;;30.48;32.41
43711;BME280;29309;42.682;23.372;2022-07-23T07:05:48;95543.13;;;30.78;32.32
43711;BME280;29309;42.682;23.372;2022-07-23T07:08:15;95538.38;;;31.00;31.84
43711;BME280;29309;42.682;23.372;2022-07-23T07:10:41;95543.19;;;31.07;30.40
43711;BME280;29309;42.682;23.372;2022-07-23T07:13:06;95536.59;;;30.51;31.54
43711;BME280;29309;42.682;23.372;2022-07-23T07:15:32;95531.28;;;30.64;31.41
43711;BME280;29309;42.682;23.372;2022-07-23T07:17:57;95527.34;;;30.80;30.41
43711;BME280;29309;42.682;23.372;2022-07-23T07:20:23;95524.56;;;31.06;30.61
43711;BME280;29309;42.682;23.372;2022-07-23T07:22:49;95518.13;;;31.35;29.22
43711;BME280;29309;42.682;23.372;2022-07-23T07:25:14;95520.03;;;31.15;30.48
43711;BME280;29309;42.682;23.372;2022-07-23T07:27:40;95520.13;;;31.40;30.31
43711;BME280;29309;42.682;23.372;2022-07-23T07:30:06;95519.19;;;31.77;29.74
43711;BME280;29309;42.682;23.372;2022-07-23T07:32:32;95520.97;;;31.63;29.33
43711;BME280;29309;42.682;23.372;2022-07-23T07:34:58;95506.84;;;31.55;29.20
43711;BME280;29309;42.682;23.372;2022-07-23T07:37:24;95506.19;;;31.80;29.19
43711;BME280;29309;42.682;23.372;2022-07-23T07:39:49;95510.22;;;32.15;28.46
43711;BME280;29309;42.682;23.372;2022-07-23T07:42:14;95505.91;;;32.39;28.49
43711;BME280;29309;42.682;23.372;2022-07-23T07:44:40;95508.88;;;32.37;28.55
43711;BME280;29309;42.682;23.372;2022-07-23T07:47:06;95505.25;;;32.61;27.86
43711;BME280;29309;42.682;23.372;2022-07-23T07:49:31;95508.56;;;32.93;27.64
43711;BME280;29309;42.682;23.372;2022-07-23T07:51:57;95511.19;;;33.01;26.60
43711;BME280;29309;42.682;23.372;2022-07-23T07:54:22;95512.59;;;33.25;26.16
43711;BME280;29309;42.682;23.372;2022-07-23T07:56:48;95510.59;;;33.42;26.14
43711;BME280;29309;42.682;23.372;2022-07-23T07:59:13;95500.94;;;33.29;25.69
43711;BME280;29309;42.682;23.372;2022-07-23T08:01:40;95494.69;;;32.99;26.92
43711;BME280;29309;42.682;23.372;2022-07-23T08:04:05;95496.72;;;33.26;26.77
43711;BME280;29309;42.682;23.372;2022-07-23T08:06:31;95501.81;;;33.46;26.14
43711;BME280;29309;42.682;23.372;2022-07-23T08:08:56;95493.66;;;33.52;26.81
43711;BME280;29309;42.682;23.372;2022-07-23T08:11:22;95490.69;;;33.54;26.82
43711;BME280;29309;42.682;23.372;2022-07-23T08:13:48;95491.72;;;33.68;26.13
43711;BME280;29309;42.682;23.372;2022-07-23T08:16:13;95489.06;;;34.01;26.02
43711;BME280;29309;42.682;23.372;2022-07-23T08:18:39;95493.06;;;34.10;25.20
43711;BME280;29309;42.682;23.372;2022-07-23T08:21:04;95493.06;;;34.10;25.01
43711;BME280;29309;42.682;23.372;2022-07-23T08:23:31;95486.53;;;34.30;25.31
43711;BME280;29309;42.682;23.372;2022-07-23T08:25:57;95485.16;;;34.29;25.17
43711;BME280;29309;42.682;23.372;2022-07-23T08:28:23;95489.81;;;34.39;25.09
43711;BME280;29309;42.682;23.372;2022-07-23T08:30:48;95488.91;;;34.63;25.42
43711;BME280;29309;42.682;23.372;2022-07-23T08:33:16;95485.06;;;34.50;25.11
43711;BME280;29309;42.682;23.372;2022-07-23T08:35:45;95482.50;;;34.23;24.51
43711;BME280;29309;42.682;23.372;2022-07-23T08:38:13;95483.59;;;34.32;25.05
43711;BME280;29309;42.682;23.372;2022-07-23T08:40:41;95489.59;;;34.45;24.62
43711;BME280;29309;42.682;23.372;2022-07-23T08:43:09;95489.09;;;34.20;24.99
43711;BME280;29309;42.682;23.372;2022-07-23T08:45:37;95487.72;;;34.37;25.21
43711;BME280;29309;42.682;23.372;2022-07-23T08:48:04;95480.94;;;34.64;25.47
43711;BME280;29309;42.682;23.372;2022-07-23T08:50:30;95481.78;;;34.60;24.34
43711;BME280;29309;42.682;23.372;2022-07-23T08:52:58;95486.25;;;34.57;24.55
43711;BME280;29309;42.682;23.372;2022-07-23T08:55:24;95479.66;;;34.58;24.17
43711;BME280;29309;42.682;23.372;2022-07-23T08:57:53;95470.72;;;34.67;24.18
43711;BME280;29309;42.682;23.372;2022-07-23T09:00:21;95467.13;;;34.66;24.52
43711;BME280;29309;42.682;23.372;2022-07-23T09:02:47;95466.53;;;34.64;23.88
43711;BME280;29309;42.682;23.372;2022-07-23T09:05:13;95469.19;;;34.32;24.53
43711;BME280;29309;42.682;23.372;2022-07-23T09:10:30;95465.13;;;34.25;24.84
43711;BME280;29309;42.682;23.372;2022-07-23T09:12:56;95464.34;;;34.27;24.79
43711;BME280;29309;42.682;23.372;2022-07-23T09:15:22;95462.94;;;34.44;24.42
43711;BME280;29309;42.682;23.372;2022-07-23T09:17:48;95466.06;;;34.38;24.62
43711;BME280;29309;42.682;23.372;2022-07-23T09:20:16;95459.19;;;34.48;24.36
43711;BME280;29309;42.682;23.372;2022-07-23T09:22:46;95457.63;;;34.70;24.88
43711;BME280;29309;42.682;23.372;2022-07-23T09:25:17;95455.81;;;34.79;24.12
43711;BME280;29309;42.682;23.372;2022-07-23T09:30:13;95458.16;;;35.09;23.20
43711;BME280;29309;42.682;23.372;2022-07-23T09:32:39;95455.50;;;35.22;23.10
43711;BME280;29309;42.682;23.372;2022-07-23T09:35:05;95455.66;;;35.35;23.61
43711;BME280;29309;42.682;23.372;2022-07-23T09:37:31;95446.56;;;35.28;21.76
43711;BME280;29309;42.682;23.372;2022-07-23T09:40:05;95445.97;;;35.42;22.71
43711;BME280;29309;42.682;23.372;2022-07-23T09:42:30;95440.81;;;35.62;21.35
43711;BME280;29309;42.682;23.372;2022-07-23T09:44:57;95437.75;;;35.66;21.43
43711;BME280;29309;42.682;23.372;2022-07-23T09:47:26;95439.50;;;35.75;22.79
43711;BME280;29309;42.682;23.372;2022-07-23T09:52:30;95423.41;;;36.12;19.65
43711;BME280;29309;42.682;23.372;2022-07-23T09:55:00;95423.91;;;36.16;19.85
43711;BME280;29309;42.682;23.372;2022-07-23T09:57:27;95426.16;;;35.82;20.21
43711;BME280;29309;42.682;23.372;2022-07-23T09:59:53;95423.16;;;36.01;20.20
43711;BME280;29309;42.682;23.372;2022-07-23T10:02:23;95412.53;;;36.12;20.75
43711;BME280;29309;42.682;23.372;2022-07-23T10:04:51;95416.53;;;36.19;21.36
43711;BME280;29309;42.682;23.372;2022-07-23T10:07:23;95406.88;;;36.10;21.80
43711;BME280;29309;42.682;23.372;2022-07-23T10:09:52;95411.50;;;36.34;20.47
43711;BME280;29309;42.682;23.372;2022-07-23T10:12:19;95401.91;;;36.23;20.33
43711;BME280;29309;42.682;23.372;2022-07-23T10:15:09;95396.34;;;36.34;21.46
43711;BME280;29309;42.682;23.372;2022-07-23T10:17:35;95402.66;;;36.53;19.97
43711;BME280;29309;42.682;23.372;2022-07-23T10:20:01;95399.31;;;36.17;19.91
43711;BME280;29309;42.682;23.372;2022-07-23T10:23:31;95400.03;;;36.01;20.63
43711;BME280;29309;42.682;23.372;2022-07-23T10:25:57;95393.41;;;35.88;20.25
43711;BME280;29309;42.682;23.372;2022-07-23T10:31:28;95388.78;;;35.78;20.03
43711;BME280;29309;42.682;23.372;2022-07-23T10:34:07;95385.69;;;35.99;20.73
43711;BME280;29309;42.682;23.372;2022-07-23T10:36:42;95387.94;;;35.96;20.84
43711;BME280;29309;42.682;23.372;2022-07-23T10:42:12;95378.81;;;36.07;19.98
43711;BME280;29309;42.682;23.372;2022-07-23T10:44:43;95375.50;;;36.00;19.60
43711;BME280;29309;42.682;23.372;2022-07-23T10:47:10;95364.63;;;36.17;19.17
43711;BME280;29309;42.682;23.372;2022-07-23T10:49:39;95376.38;;;36.13;19.53
43711;BME280;29309;42.682;23.372;2022-07-23T10:57:10;95355.50;;;36.11;17.82
43711;BME280;29309;42.682;23.372;2022-07-23T11:02:46;95356.59;;;36.03;18.75
43711;BME280;29309;42.682;23.372;2022-07-23T11:05:18;95352.31;;;36.02;18.47
43711;BME280;29309;42.682;23.372;2022-07-23T11:10:40;95341.06;;;36.11;18.51
43711;BME280;29309;42.682;23.372;2022-07-23T11:31:58;95322.84;;;36.29;16.84
43711;BME280;29309;42.682;23.372;2022-07-23T11:34:31;95321.78;;;35.90;16.40
43711;BME280;29309;42.682;23.372;2022-07-23T11:36:58;95316.56;;;36.24;17.70
43711;BME280;29309;42.682;23.372;2022-07-23T11:39:26;95313.56;;;36.41;17.59
43711;BME280;29309;42.682;23.372;2022-07-23T11:41:52;95310.50;;;36.45;15.55
43711;BME280;29309;42.682;23.372;2022-07-23T11:44:31;95312.38;;;36.65;15.95
43711;BME280;29309;42.682;23.372;2022-07-23T11:47:03;95311.38;;;36.41;14.74
43711;BME280;29309;42.682;23.372;2022-07-23T11:49:29;95299.91;;;36.10;15.49
43711;BME280;29309;42.682;23.372;2022-07-23T11:52:14;95304.31;;;36.38;16.12
43711;BME280;29309;42.682;23.372;2022-07-23T11:54:59;95301.63;;;36.34;16.31
43711;BME280;29309;42.682;23.372;2022-07-23T11:57:43;95306.09;;;36.46;15.62
43711;BME280;29309;42.682;23.372;2022-07-23T12:00:16;95297.22;;;36.65;16.33
43711;BME280;29309;42.682;23.372;2022-07-23T12:02:51;95298.41;;;36.70;15.88
43711;BME280;29309;42.682;23.372;2022-07-23T12:05:22;95300.13;;;36.50;15.63
43711;BME280;29309;42.682;23.372;2022-07-23T12:07:50;95296.03;;;36.30;15.54
43711;BME280;29309;42.682;23.372;2022-07-23T12:10:21;95296.91;;;36.12;16.16
43711;BME280;29309;42.682;23.372;2022-07-23T12:12:58;95289.66;;;36.28;16.60
43711;BME280;29309;42.682;23.372;2022-07-23T12:15:32;95284.06;;;36.24;13.77
43711;BME280;29309;42.682;23.372;2022-07-23T12:18:00;95279.38;;;36.16;16.06
43711;BME280;29309;42.682;23.372;2022-07-23T12:20:29;95274.84;;;36.04;14.82
43711;BME280;29309;42.682;23.372;2022-07-23T12:22:57;95280.75;;;36.02;16.77
43711;BME280;29309;42.682;23.372;2022-07-23T12:25:27;95281.50;;;35.86;14.84
43711;BME280;29309;42.682;23.372;2022-07-23T12:28:10;95273.81;;;35.66;16.21
43711;BME280;29309;42.682;23.372;2022-07-23T12:30:56;95272.53;;;35.46;16.57
43711;BME280;29309;42.682;23.372;2022-07-23T12:33:28;95279.41;;;35.22;17.12
43711;BME280;29309;42.682;23.372;2022-07-23T12:35:56;95279.41;;;35.22;17.06
43711;BME280;29309;42.682;23.372;2022-07-23T12:38:23;95269.28;;;35.23;15.77
43711;BME280;29309;42.682;23.372;2022-07-23T12:40:54;95265.16;;;35.49;14.65
43711;BME280;29309;42.682;23.372;2022-07-23T12:50:53;95267.41;;;35.32;15.68
43711;BME280;29309;42.682;23.372;2022-07-23T12:53:22;95252.53;;;35.26;14.99
43711;BME280;29309;42.682;23.372;2022-07-23T12:55:48;95257.28;;;35.17;16.10
43711;BME280;29309;42.682;23.372;2022-07-23T13:00:53;95248.38;;;34.89;15.45
43711;BME280;29309;42.682;23.372;2022-07-23T13:03:22;95258.25;;;34.78;15.18
43711;BME280;29309;42.682;23.372;2022-07-23T13:05:48;95241.84;;;34.74;15.69
43711;BME280;29309;42.682;23.372;2022-07-23T13:08:14;95242.72;;;34.87;18.05
43711;BME280;29309;42.682;23.372;2022-07-23T13:10:39;95237.19;;;34.81;17.02
43711;BME280;29309;42.682;23.372;2022-07-23T13:13:10;95242.25;;;34.81;16.35
43711;BME280;29309;42.682;23.372;2022-07-23T13:15:35;95238.50;;;34.84;17.13
43711;BME280;29309;42.682;23.372;2022-07-23T13:18:01;95233.97;;;34.73;15.40
43711;BME280;29309;42.682;23.372;2022-07-23T13:20:26;95231.69;;;34.75;14.92
43711;BME280;29309;42.682;23.372;2022-07-23T13:22:53;95240.69;;;34.84;16.12
43711;BME280;29309;42.682;23.372;2022-07-23T13:25:18;95241.22;;;34.72;16.35
43711;BME280;29309;42.682;23.372;2022-07-23T13:27:44;95245.16;;;34.64;15.90
43711;BME280;29309;42.682;23.372;2022-07-23T13:30:10;95232.22;;;34.63;15.43
43711;BME280;29309;42.682;23.372;2022-07-23T13:32:36;95233.97;;;34.73;16.49
43711;BME280;29309;42.682;23.372;2022-07-23T13:35:02;95238.53;;;34.68;16.37
43711;BME280;29309;42.682;23.372;2022-07-23T13:37:28;95236.31;;;34.85;15.14
43711;BME280;29309;42.682;23.372;2022-07-23T13:39:53;95235.19;;;34.78;15.62
43711;BME280;29309;42.682;23.372;2022-07-23T13:42:19;95232.56;;;34.72;15.28